Mechelen, Belgium
Current Conditions -  °F | °C
As of 8:20 PM on Tuesday 21 Oct 2014 (Local Time) from EBBR Reporting Station
Scattered Clouds Scattered Clouds  
Wind Chill: 42°   Ceiling: Unl
Heat Index: 48°   Visibility: 6mi
Dew Point: 41°   Wind: 17mph
Humidity: 76%   Direction: 270°W
Pressure: 29.77"   Gusts: NA
Location:  51.03°N, 4.46°E
Report Text: EBBR 211820Z 27015KT 9999 FEW025TCU SCT038 09/05 Q1008 TEMPO 28018G30KT 4000 SHRA
Loading
Personal Weather Stations






























Interactive Weather Map
Tropical Storm Tracking
New forecast layout! Learn more

10-Day Weather Forecast

Advertisements
Track Severe Weather on mobile